Time;durP1;ratioP1;P1;durP2;ratioP2;P2;SDS_P1;SDS_P2;PMS_P1;PMS_P2;Temp;Humidity;BMP_temperature;BMP_pressure;BME280_temperature;BME280_humidity;BME280_pressure;Samples;Min_cycle;Max_cycle;Signal;HPM_P1;HPM_P2
2021/01/18 00:01:32;;;;;;;10.95;5.63;;;1.50;99.90;;;;;;4958336;28;20030;-85
2021/01/18 00:03:58;;;;;;;9.40;4.93;;;1.50;99.90;;;;;;4957158;29;20036;-85
2021/01/18 00:06:24;;;;;;;8.40;4.53;;;1.50;99.90;;;;;;4957047;29;20390;-86
2021/01/18 00:08:51;;;;;;;9.35;5.57;;;1.50;99.90;;;;;;4957030;29;20114;-85
2021/01/18 00:11:18;;;;;;;8.13;4.50;;;1.50;99.90;;;;;;4956940;29;20122;-86
2021/01/18 00:13:48;;;;;;;6.38;4.22;;;1.50;99.90;;;;;;4958075;28;20035;-86
2021/01/18 00:16:19;;;;;;;9.52;4.30;;;1.50;99.90;;;;;;4956874;29;20023;-85
2021/01/18 00:18:46;;;;;;;6.88;4.40;;;1.50;99.90;;;;;;4958053;28;20106;-86
2021/01/18 00:21:11;;;;;;;8.68;5.50;;;1.50;99.90;;;;;;4958034;28;20036;-86
2021/01/18 00:23:41;;;;;;;10.20;5.10;;;1.50;99.90;;;;;;4956743;29;20046;-86
2021/01/18 00:26:08;;;;;;;9.07;5.28;;;1.50;99.90;;;;;;4956808;29;20487;-86
2021/01/18 00:28:35;;;;;;;7.88;3.83;;;1.60;99.90;;;;;;4957916;28;20494;-86
2021/01/18 00:31:05;;;;;;;8.13;4.57;;;1.60;99.90;;;;;;4957860;28;20401;-86
2021/01/18 00:33:32;;;;;;;9.27;4.82;;;1.50;99.90;;;;;;4956475;29;20032;-86
2021/01/18 00:35:57;;;;;;;5.30;3.47;;;1.50;99.90;;;;;;4956390;28;20026;-86
2021/01/18 00:38:23;;;;;;;4.57;3.88;;;1.50;99.90;;;;;;4956493;29;20027;-86
2021/01/18 00:40:49;;;;;;;6.93;4.03;;;1.60;99.90;;;;;;4956413;29;20034;-85
2021/01/18 00:43:14;;;;;;;5.82;3.72;;;1.50;99.90;;;;;;4957670;28;20105;-86
2021/01/18 00:45:40;;;;;;;8.43;4.40;;;1.50;99.90;;;;;;4956356;29;20207;-86
2021/01/18 00:48:06;;;;;;;6.82;4.32;;;1.50;99.90;;;;;;4956287;29;20031;-86
2021/01/18 00:50:32;;;;;;;8.93;4.05;;;1.50;99.90;;;;;;4956473;29;20031;-86
2021/01/18 00:53:01;;;;;;;4.72;3.78;;;1.50;99.90;;;;;;4956315;29;20030;-86
2021/01/18 00:55:28;;;;;;;4.28;3.65;;;1.50;99.90;;;;;;4956143;29;20019;-86
2021/01/18 00:57:54;;;;;;;5.78;4.45;;;1.50;99.90;;;;;;4956310;29;20031;-85
2021/01/18 01:00:23;;;;;;;5.70;3.67;;;1.50;99.90;;;;;;4956022;29;20020;-86
2021/01/18 01:02:49;;;;;;;9.13;4.10;;;1.50;99.90;;;;;;4956006;29;20054;-86
2021/01/18 01:05:20;;;;;;;4.85;3.95;;;1.50;99.90;;;;;;4955936;29;20027;-85
2021/01/18 01:07:53;;;;;;;6.60;4.20;;;1.50;99.90;;;;;;4957243;28;20028;-85
2021/01/18 01:10:31;;;;;;;6.55;3.58;;;1.50;99.90;;;;;;4955137;28;20032;-85
2021/01/18 01:13:02;;;;;;;9.00;3.42;;;1.50;99.90;;;;;;4955801;29;20460;-85
2021/01/18 01:15:29;;;;;;;6.03;4.45;;;1.50;99.90;;;;;;4955771;29;20150;-85
2021/01/18 01:17:54;;;;;;;5.65;3.95;;;1.50;99.90;;;;;;4955695;29;20023;-85
2021/01/18 01:20:21;;;;;;;8.30;4.50;;;1.50;99.90;;;;;;4955676;29;20024;-86
2021/01/18 01:22:48;;;;;;;5.35;4.20;;;1.50;99.90;;;;;;4956924;28;20368;-85
2021/01/18 01:25:17;;;;;;;7.45;4.85;;;1.40;99.90;;;;;;4956851;28;20455;-85
2021/01/18 01:27:44;;;;;;;6.95;4.70;;;1.40;99.90;;;;;;4955519;29;20037;-86
2021/01/18 01:30:17;;;;;;;8.20;4.63;;;1.40;99.90;;;;;;4955463;29;20122;-85
2021/01/18 01:32:47;;;;;;;4.05;3.35;;;1.40;99.90;;;;;;4955925;29;20024;-85
2021/01/18 01:35:13;;;;;;;5.97;4.03;;;1.40;99.90;;;;;;4955435;29;20027;-85
2021/01/18 01:37:39;;;;;;;7.32;4.20;;;1.40;99.90;;;;;;4956558;28;20019;-85
2021/01/18 01:40:06;;;;;;;8.85;4.70;;;1.40;99.90;;;;;;4955602;29;20082;-85
2021/01/18 01:42:32;;;;;;;5.63;4.10;;;1.40;99.90;;;;;;4955276;29;20031;-85
2021/01/18 01:44:58;;;;;;;6.82;3.95;;;1.40;99.90;;;;;;4956384;28;20058;-85
2021/01/18 01:47:31;;;;;;;5.47;4.10;;;1.40;99.90;;;;;;4955223;29;20078;-84
2021/01/18 01:49:58;;;;;;;5.20;3.65;;;1.40;99.90;;;;;;4955155;29;20546;-85
2021/01/18 01:52:26;;;;;;;4.78;3.85;;;1.40;99.90;;;;;;4955057;29;20031;-85
2021/01/18 01:54:55;;;;;;;7.05;4.03;;;1.40;99.90;;;;;;4955011;29;20038;-85
2021/01/18 01:57:23;;;;;;;4.88;3.60;;;1.40;99.90;;;;;;4955276;29;20027;-86
2021/01/18 01:59:49;;;;;;;4.32;3.53;;;1.30;99.90;;;;;;4956261;28;20110;-85
2021/01/18 02:02:15;;;;;;;4.22;3.55;;;1.40;99.90;;;;;;4954915;29;20027;-85
2021/01/18 02:04:41;;;;;;;4.60;3.75;;;1.40;99.90;;;;;;4954860;29;20082;-85
2021/01/18 02:07:27;;;;;;;4.20;3.55;;;1.40;99.90;;;;;;4954844;29;20027;-85
2021/01/18 02:09:56;;;;;;;5.22;3.40;;;1.40;99.90;;;;;;4954808;29;20078;-85
2021/01/18 02:12:25;;;;;;;4.63;3.83;;;1.30;99.90;;;;;;4955951;28;20106;-85
2021/01/18 02:15:05;;;;;;;7.85;3.78;;;1.40;99.90;;;;;;4956268;28;20344;-86
2021/01/18 02:17:58;;;;;;;4.55;3.08;;;1.40;99.90;;;;;;4954753;29;20027;-85
2021/01/18 02:20:37;;;;;;;4.38;3.40;;;1.40;99.90;;;;;;4954555;28;20024;-86
2021/01/18 02:23:21;;;;;;;4.28;3.45;;;1.40;99.90;;;;;;4955880;29;20511;-86
2021/01/18 02:25:51;;;;;;;4.13;3.45;;;1.40;99.90;;;;;;4954585;29;20070;-85
2021/01/18 02:28:24;;;;;;;4.13;3.67;;;1.40;99.90;;;;;;4954578;29;20032;-86
2021/01/18 02:30:56;;;;;;;5.70;3.58;;;1.40;99.90;;;;;;4954526;29;20065;-86
2021/01/18 02:33:25;;;;;;;7.78;4.03;;;1.40;99.90;;;;;;4954408;29;20037;-86
2021/01/18 02:36:09;;;;;;;6.30;3.67;;;1.40;99.90;;;;;;4954335;28;20026;-86
2021/01/18 02:38:50;;;;;;;7.25;4.68;;;1.50;99.90;;;;;;4954450;29;20025;-86
2021/01/18 02:41:34;;;;;;;6.30;4.10;;;1.40;99.90;;;;;;4954382;29;20043;-86
2021/01/18 02:44:04;;;;;;;;;;;1.40;99.90;;;;;;4954589;29;20078;-85
2021/01/18 02:46:32;;;;;;;6.18;3.88;;;1.40;99.90;;;;;;4955563;28;19906;-85
2021/01/18 02:49:02;;;;;;;6.63;3.97;;;1.40;99.90;;;;;;4954260;29;20031;-86
2021/01/18 02:51:28;;;;;;;5.50;4.03;;;1.40;99.90;;;;;;4955749;28;20028;-85
2021/01/18 02:54:01;;;;;;;8.73;4.53;;;1.40;99.90;;;;;;4954131;29;20384;-85
2021/01/18 02:56:35;;;;;;;6.93;4.20;;;1.40;99.90;;;;;;4954244;29;20023;-85
2021/01/18 02:59:03;;;;;;;10.88;5.03;;;1.40;99.90;;;;;;4954195;29;20475;-85
2021/01/18 03:02:12;;;;;;;7.03;4.90;;;1.50;99.90;;;;;;4954126;29;20170;-85
2021/01/18 03:05:16;;;;;;;12.70;6.05;;;1.50;99.90;;;;;;4954165;29;20093;-84
2021/01/18 03:07:58;;;;;;;9.93;5.57;;;1.50;99.90;;;;;;4954112;29;20467;-84
2021/01/18 03:10:24;;;;;;;8.77;5.30;;;1.40;99.90;;;;;;4954088;29;20032;-84
2021/01/18 03:12:59;;;;;;;8.80;5.40;;;1.40;99.90;;;;;;4953994;29;20427;-84
2021/01/18 03:15:28;;;;;;;12.25;5.85;;;1.40;99.90;;;;;;4955332;28;20031;-84
2021/01/18 03:17:57;;;;;;;13.88;6.43;;;1.40;99.90;;;;;;4953998;29;20023;-84
2021/01/18 03:20:24;;;;;;;10.38;6.25;;;1.40;99.90;;;;;;4954002;29;20430;-84
2021/01/18 03:22:50;;;;;;;13.85;6.65;;;1.40;99.90;;;;;;4954025;29;20515;-84
2021/01/18 03:25:16;;;;;;;10.65;6.10;;;1.40;99.90;;;;;;4953948;29;20119;-84
2021/01/18 03:28:02;;;;;;;14.85;6.25;;;1.50;99.90;;;;;;4953957;29;20135;-84
2021/01/18 03:30:28;;;;;;;13.20;6.60;;;1.40;99.90;;;;;;4955081;28;20039;-84
2021/01/18 03:32:55;;;;;;;9.10;5.40;;;1.40;99.90;;;;;;4956624;28;20028;-84
2021/01/18 03:35:22;;;;;;;12.07;6.35;;;1.50;99.90;;;;;;4957644;29;20517;-84
2021/01/18 03:37:56;;;;;;;11.77;5.85;;;1.50;99.90;;;;;;4958799;28;20054;-84
2021/01/18 03:40:24;;;;;;;12.15;5.97;;;1.50;99.90;;;;;;4957597;29;20030;-84
2021/01/18 03:43:02;;;;;;;13.38;6.00;;;1.40;99.90;;;;;;4957473;29;20036;-84
2021/01/18 03:45:30;;;;;;;12.48;6.22;;;1.40;99.90;;;;;;4957469;29;20138;-84
2021/01/18 03:47:56;;;;;;;14.10;6.15;;;1.50;99.90;;;;;;4957354;29;20038;-84
2021/01/18 03:50:22;;;;;;;9.93;5.22;;;1.40;99.90;;;;;;4957410;29;20060;-83
2021/01/18 03:52:49;;;;;;;10.77;5.20;;;1.40;99.90;;;;;;4958516;28;20055;-84
2021/01/18 03:55:15;;;;;;;6.70;5.07;;;1.40;99.90;;;;;;4957549;29;20035;-84
2021/01/18 03:57:44;;;;;;;10.45;5.95;;;1.40;99.90;;;;;;4957668;29;20128;-83
2021/01/18 04:00:10;;;;;;;6.32;4.30;;;1.40;99.90;;;;;;4958435;28;20426;-84
2021/01/18 04:02:35;;;;;;;9.07;5.07;;;1.40;99.90;;;;;;4957140;29;20037;-84
2021/01/18 04:05:02;;;;;;;11.02;5.57;;;1.40;99.90;;;;;;4958624;28;20438;-83
2021/01/18 04:07:28;;;;;;;11.13;5.88;;;1.30;99.90;;;;;;4957036;29;20035;-84
2021/01/18 04:09:53;;;;;;;11.55;5.22;;;1.30;99.90;;;;;;4956991;29;20034;-83
2021/01/18 04:12:19;;;;;;;12.00;5.00;;;1.20;99.90;;;;;;4956860;29;20027;-83
2021/01/18 04:14:45;;;;;;;7.93;4.45;;;1.30;99.90;;;;;;4958170;28;20019;-83
2021/01/18 04:17:11;;;;;;;9.50;5.55;;;1.30;99.90;;;;;;4956864;29;20581;-83
2021/01/18 04:19:37;;;;;;;11.13;4.95;;;1.30;99.90;;;;;;4956838;29;20020;-83
2021/01/18 04:22:06;;;;;;;6.90;4.32;;;1.40;99.90;;;;;;4956774;29;20034;-83
2021/01/18 04:24:33;;;;;;;12.27;5.53;;;1.40;99.90;;;;;;4956725;29;20078;-83
2021/01/18 04:26:59;;;;;;;10.55;4.80;;;1.40;99.90;;;;;;4957949;28;20050;-84
2021/01/18 04:29:26;;;;;;;12.80;4.95;;;1.40;99.90;;;;;;4956675;29;20089;-83
2021/01/18 04:31:52;;;;;;;17.50;6.82;;;1.40;99.90;;;;;;4956595;29;20035;-83
2021/01/18 04:34:18;;;;;;;12.63;6.07;;;1.40;99.90;;;;;;4958328;28;20607;-83
2021/01/18 04:36:44;;;;;;;12.20;5.40;;;1.40;99.90;;;;;;4956435;28;20047;-83
2021/01/18 04:39:10;;;;;;;8.10;4.70;;;1.50;99.90;;;;;;4956470;29;20107;-83
2021/01/18 04:41:39;;;;;;;5.82;3.88;;;1.40;99.90;;;;;;4957946;29;20026;-83
2021/01/18 04:44:07;;;;;;;10.27;5.03;;;1.40;99.90;;;;;;4956184;28;20051;-83
2021/01/18 04:46:40;;;;;;;11.88;5.45;;;1.30;99.90;;;;;;4957925;28;20399;-83
2021/01/18 04:49:10;;;;;;;12.52;5.70;;;1.20;99.90;;;;;;4956355;29;20023;-83
2021/01/18 04:51:47;;;;;;;8.00;4.57;;;1.20;99.90;;;;;;4957577;28;20027;-83
2021/01/18 04:54:17;;;;;;;7.78;4.82;;;1.20;99.90;;;;;;4957433;28;20063;-83
2021/01/18 04:57:07;;;;;;;10.18;5.25;;;1.20;99.90;;;;;;4957738;28;20452;-83
2021/01/18 04:59:47;;;;;;;8.20;4.47;;;1.20;99.90;;;;;;4957370;28;20102;-83
2021/01/18 05:02:16;;;;;;;9.40;5.05;;;1.10;99.90;;;;;;4957612;28;20067;-83
2021/01/18 05:04:44;;;;;;;8.98;4.95;;;1.10;99.90;;;;;;4957234;29;20034;-83
2021/01/18 05:07:19;;;;;;;9.05;4.80;;;1.00;99.90;;;;;;4955916;29;20035;-83
2021/01/18 05:09:55;;;;;;;9.55;4.90;;;1.00;99.90;;;;;;4955942;29;20467;-83
2021/01/18 05:12:21;;;;;;;8.38;4.05;;;1.00;99.90;;;;;;4957026;28;20031;-82
2021/01/18 05:14:48;;;;;;;7.95;4.72;;;0.90;99.90;;;;;;4955778;29;20028;-82
2021/01/18 05:17:33;;;;;;;12.23;4.82;;;0.90;99.90;;;;;;4957014;28;20403;-82
2021/01/18 05:19:59;;;;;;;9.18;4.72;;;0.80;99.90;;;;;;4955790;29;20027;-82
2021/01/18 05:22:25;;;;;;;11.68;5.95;;;0.70;99.90;;;;;;4956903;28;20023;-82
2021/01/18 05:24:53;;;;;;;15.13;5.82;;;0.60;99.90;;;;;;4956459;29;20023;-82
2021/01/18 05:27:19;;;;;;;15.80;5.18;;;0.60;99.90;;;;;;4955604;29;20027;-82
2021/01/18 05:29:53;;;;;;;11.45;5.82;;;0.50;99.90;;;;;;4955554;29;20443;-82
2021/01/18 05:32:21;;;;;;;11.88;5.43;;;0.40;99.90;;;;;;4956770;28;20437;-82
2021/01/18 05:34:47;;;;;;;12.77;6.30;;;0.50;99.90;;;;;;4955479;29;20034;-82
2021/01/18 05:37:13;;;;;;;12.73;4.90;;;0.40;99.90;;;;;;4956586;28;20027;-82
2021/01/18 05:39:39;;;;;;;14.15;5.63;;;0.40;99.90;;;;;;4956612;28;20023;-82
2021/01/18 05:42:18;;;;;;;8.80;5.32;;;0.40;99.90;;;;;;4955324;29;20583;-82
2021/01/18 05:44:44;;;;;;;10.52;5.50;;;0.30;99.90;;;;;;4955121;29;20179;-82
2021/01/18 05:47:16;;;;;;;13.65;5.88;;;0.30;99.90;;;;;;4955237;29;20188;-82
2021/01/18 05:49:42;;;;;;;11.68;5.32;;;0.30;99.90;;;;;;4955238;29;20031;-82
2021/01/18 05:52:29;;;;;;;8.63;5.07;;;0.40;99.90;;;;;;4955092;29;20078;-82
2021/01/18 05:55:17;;;;;;;9.27;4.63;;;0.40;99.90;;;;;;4956070;28;20081;-82
2021/01/18 05:57:47;;;;;;;6.97;4.43;;;0.50;99.90;;;;;;4954991;29;20058;-81
2021/01/18 06:00:44;;;;;;;10.88;4.93;;;0.50;99.90;;;;;;4955024;29;20041;-82
2021/01/18 06:03:11;;;;;;;11.38;4.95;;;0.60;99.90;;;;;;4954952;29;20391;-81
2021/01/18 06:05:39;;;;;;;9.98;4.75;;;0.60;99.90;;;;;;4956446;28;20027;-81
2021/01/18 06:08:14;;;;;;;8.73;4.50;;;0.60;99.90;;;;;;4954817;29;20507;-82
2021/01/18 06:10:41;;;;;;;10.27;4.40;;;0.50;99.90;;;;;;4956095;28;20023;-80
2021/01/18 06:13:33;;;;;;;9.98;3.97;;;0.40;99.90;;;;;;4954706;29;20050;-82
2021/01/18 06:16:01;;;;;;;8.77;4.28;;;0.40;99.90;;;;;;4954676;29;20027;-81
2021/01/18 06:18:34;;;;;;;11.98;4.30;;;0.40;99.90;;;;;;4956353;28;20027;-82
2021/01/18 06:21:02;;;;;;;8.82;4.07;;;0.40;99.90;;;;;;4955961;28;20476;-81
2021/01/18 06:23:28;;;;;;;11.00;4.28;;;0.40;99.90;;;;;;4954628;29;20027;-81
2021/01/18 06:25:55;;;;;;;7.80;4.22;;;0.30;99.90;;;;;;4954564;29;20027;-81
2021/01/18 06:28:27;;;;;;;7.63;3.85;;;0.30;99.90;;;;;;4954517;29;20039;-81
2021/01/18 06:31:03;;;;;;;14.32;7.50;;;0.30;99.90;;;;;;4954516;29;20027;-82
2021/01/18 06:33:48;;;;;;;15.32;7.97;;;0.30;99.90;;;;;;4954646;29;20035;-82
2021/01/18 06:36:22;;;;;;;12.07;6.53;;;0.00;99.90;;;;;;4954330;28;20023;-82
2021/01/18 06:38:57;;;;;;;8.65;5.07;;;0.00;99.90;;;;;;4954465;29;20039;-82
2021/01/18 06:41:28;;;;;;;12.30;5.78;;;0.10;99.90;;;;;;4954359;29;20027;-82
2021/01/18 06:43:54;;;;;;;17.15;8.55;;;0.00;99.90;;;;;;4955322;28;20550;-82
2021/01/18 06:46:24;;;;;;;16.52;9.93;;;0.10;99.90;;;;;;4955547;28;20070;-82
2021/01/18 06:48:51;;;;;;;18.70;11.85;;;0.10;99.90;;;;;;4954267;29;20031;-82
2021/01/18 06:51:20;;;;;;;12.85;8.95;;;0.20;99.90;;;;;;4955470;28;20074;-81
2021/01/18 06:53:47;;;;;;;19.85;9.65;;;0.30;99.90;;;;;;4955385;28;20383;-82
2021/01/18 06:56:23;;;;;;;10.48;6.38;;;0.40;99.90;;;;;;4938515;29;20561;-82
2021/01/18 06:58:51;;;;;;;17.48;7.30;;;0.30;99.90;;;;;;4954181;29;20019;-82
2021/01/18 07:01:30;;;;;;;11.85;7.05;;;0.30;99.90;;;;;;4954135;29;20034;-82
2021/01/18 07:04:03;;;;;;;18.48;10.48;;;0.40;99.90;;;;;;4954108;29;20038;-82
2021/01/18 07:06:34;;;;;;;32.33;21.35;;;0.60;99.90;;;;;;4954117;28;20122;-82
2021/01/18 07:09:11;;;;;;;13.93;8.68;;;0.60;99.90;;;;;;4957516;29;20038;-82
2021/01/18 07:11:37;;;;;;;17.98;8.63;;;0.70;99.90;;;;;;4958105;29;20459;-82
2021/01/18 07:14:11;;;;;;;10.55;6.80;;;0.70;99.90;;;;;;4959450;28;20038;-82
2021/01/18 07:16:39;;;;;;;10.40;6.82;;;0.80;99.90;;;;;;4958023;29;20468;-82
2021/01/18 07:19:08;;;;;;;15.05;6.65;;;0.90;99.90;;;;;;4957924;29;20464;-81
2021/01/18 07:22:11;;;;;;;18.83;9.68;;;0.80;99.90;;;;;;4959134;28;20028;-82
2021/01/18 07:24:42;;;;;;;14.95;7.72;;;0.70;99.90;;;;;;4957808;29;20034;-81
2021/01/18 07:27:15;;;;;;;10.65;6.20;;;0.70;99.90;;;;;;4959304;28;20023;-83
2021/01/18 07:29:40;;;;;;;8.75;4.78;;;0.70;99.90;;;;;;4957728;29;20027;-83
2021/01/18 07:32:09;;;;;;;12.25;6.05;;;0.90;99.90;;;;;;4957680;29;20034;-83
2021/01/18 07:34:37;;;;;;;12.15;5.85;;;1.00;99.90;;;;;;4957532;29;20459;-82
2021/01/18 07:37:08;;;;;;;38.45;19.60;;;1.00;99.90;;;;;;4957494;28;20020;-82
2021/01/18 07:39:40;;;;;;;18.98;9.25;;;1.00;99.90;;;;;;4958772;28;20027;-82
2021/01/18 07:42:29;;;;;;;12.63;6.47;;;1.00;99.90;;;;;;4957491;29;20023;-82
2021/01/18 07:45:15;;;;;;;13.38;5.55;;;1.00;99.90;;;;;;4957292;29;20083;-83
2021/01/18 07:47:56;;;;;;;10.20;4.80;;;1.10;99.90;;;;;;4957443;29;20208;-82
2021/01/18 07:50:29;;;;;;;11.77;5.35;;;1.10;99.90;;;;;;4958639;28;20053;-83
2021/01/18 07:53:06;;;;;;;10.52;5.55;;;1.10;99.90;;;;;;4957263;29;20023;-83
2021/01/18 07:55:33;;;;;;;11.30;6.35;;;1.10;99.90;;;;;;4957313;29;20395;-83
2021/01/18 07:58:20;;;;;;;8.25;5.85;;;1.10;99.90;;;;;;4957224;29;20395;-83
2021/01/18 08:00:49;;;;;;;12.38;6.28;;;1.00;99.90;;;;;;4957208;29;20491;-83
2021/01/18 08:03:15;;;;;;;10.38;6.32;;;1.10;99.90;;;;;;4957177;29;20394;-83
2021/01/18 08:05:42;;;;;;;10.30;5.03;;;1.20;99.90;;;;;;4958361;28;20023;-83
2021/01/18 08:08:14;;;;;;;9.35;5.20;;;1.30;99.90;;;;;;4958264;28;20034;-83
2021/01/18 08:10:55;;;;;;;8.48;4.85;;;1.30;99.90;;;;;;4958243;28;20475;-83
2021/01/18 08:13:43;;;;;;;13.88;5.93;;;1.20;99.90;;;;;;4958454;28;20071;-83
2021/01/18 08:16:19;;;;;;;9.27;5.70;;;1.10;99.90;;;;;;4956847;29;20110;-83
2021/01/18 08:19:13;;;;;;;9.13;5.07;;;1.10;99.90;;;;;;4957826;28;20026;-82
2021/01/18 08:21:45;;;;;;;14.60;7.03;;;1.20;99.90;;;;;;4958133;28;20019;-82
2021/01/18 08:24:13;;;;;;;19.67;9.90;;;1.30;99.90;;;;;;4956798;29;20364;-84
2021/01/18 08:27:00;;;;;;;20.52;10.40;;;1.20;99.90;;;;;;4956711;29;20434;-85
2021/01/18 08:29:49;;;;;;;21.23;11.02;;;1.30;99.90;;;;;;4957861;28;20027;-84
2021/01/18 08:32:20;;;;;;;225.48;155.20;;;1.30;99.90;;;;;;4948887;29;20046;-82
2021/01/18 08:34:54;;;;;;;49.15;34.83;;;1.40;99.90;;;;;;4956444;29;20023;-81
2021/01/18 08:37:20;;;;;;;25.25;15.70;;;1.30;99.90;;;;;;4956549;28;20027;-84
2021/01/18 08:40:13;;;;;;;29.02;15.27;;;1.40;99.90;;;;;;4956466;29;20165;-83
2021/01/18 08:42:40;;;;;;;42.53;18.13;;;1.30;99.90;;;;;;4956094;29;20027;-83
2021/01/18 08:45:09;;;;;;;31.98;16.02;;;1.20;99.90;;;;;;4957550;28;20397;-84
2021/01/18 08:47:51;;;;;;;36.50;16.35;;;1.20;99.90;;;;;;4956324;29;20479;-82
2021/01/18 08:50:22;;;;;;;32.45;15.80;;;1.20;99.90;;;;;;4957557;28;20356;-82
2021/01/18 08:52:49;;;;;;;30.83;13.48;;;1.20;99.90;;;;;;4956172;29;20388;-82
2021/01/18 08:55:30;;;;;;;16.40;10.20;;;1.20;99.90;;;;;;4956156;28;20023;-82
2021/01/18 08:58:00;;;;;;;15.43;9.40;;;1.40;99.90;;;;;;4956133;29;20016;-82
2021/01/18 09:00:46;;;;;;;14.23;8.30;;;1.40;99.90;;;;;;4957342;28;20027;-82
2021/01/18 09:03:17;;;;;;;11.57;6.97;;;1.40;99.90;;;;;;4956004;29;20027;-82
2021/01/18 09:05:44;;;;;;;14.85;5.93;;;1.30;99.90;;;;;;4956016;29;20082;-82
2021/01/18 09:08:13;;;;;;;14.57;6.35;;;1.40;99.90;;;;;;4957252;28;20089;-82
2021/01/18 09:10:39;;;;;;;18.60;7.15;;;1.40;99.90;;;;;;4955933;29;20034;-85
2021/01/18 09:13:07;;;;;;;14.02;6.50;;;1.40;99.90;;;;;;4957059;28;20031;-82
2021/01/18 09:15:35;;;;;;;17.42;7.15;;;1.40;99.90;;;;;;4955882;29;20031;-83
2021/01/18 09:18:10;;;;;;;13.20;6.22;;;1.50;99.90;;;;;;4955849;29;20395;-83
2021/01/18 09:20:41;;;;;;;16.25;8.20;;;1.60;99.90;;;;;;4955696;29;20452;-83
2021/01/18 09:23:08;;;;;;;20.92;7.90;;;1.70;99.90;;;;;;4955702;29;20031;-83
2021/01/18 09:25:38;;;;;;;10.02;5.80;;;1.80;99.90;;;;;;4956896;28;20508;-83
2021/01/18 09:28:12;;;;;;;13.75;6.22;;;1.80;99.90;;;;;;4955603;29;20101;-84
2021/01/18 09:30:40;;;;;;;13.13;6.05;;;1.90;99.90;;;;;;4956179;28;20086;-84
2021/01/18 09:33:08;;;;;;;8.52;4.75;;;2.00;99.90;;;;;;4956674;28;20521;-84
2021/01/18 09:35:36;;;;;;;15.32;5.50;;;1.90;99.90;;;;;;4956314;29;20047;-84
2021/01/18 09:38:03;;;;;;;11.30;5.65;;;2.00;99.90;;;;;;4955385;28;20106;-84
2021/01/18 09:40:30;;;;;;;10.73;5.45;;;1.90;99.90;;;;;;4956716;28;20023;-84
2021/01/18 09:42:57;;;;;;;10.95;4.68;;;2.00;99.90;;;;;;4956430;28;20035;-83
2021/01/18 09:45:25;;;;;;;8.95;4.40;;;2.00;99.90;;;;;;4956571;28;20035;-84
2021/01/18 09:47:52;;;;;;;12.00;4.82;;;2.10;99.90;;;;;;4955228;29;20031;-84
2021/01/18 09:50:20;;;;;;;9.45;4.50;;;2.10;99.90;;;;;;4955300;29;20024;-84
2021/01/18 09:52:48;;;;;;;10.98;4.72;;;2.20;99.90;;;;;;4956305;28;20034;-84
2021/01/18 09:55:19;;;;;;;10.10;4.65;;;2.30;99.90;;;;;;4955134;29;20054;-83
2021/01/18 09:58:10;;;;;;;10.32;4.80;;;2.40;99.90;;;;;;4956322;28;20475;-84
2021/01/18 10:00:42;;;;;;;9.98;4.50;;;2.40;99.90;;;;;;4941588;29;20491;-84
2021/01/18 10:03:09;;;;;;;11.27;4.53;;;2.50;99.90;;;;;;4954994;29;20023;-84
2021/01/18 10:05:39;;;;;;;7.82;4.40;;;2.70;99.90;;;;;;4956225;28;20023;-85
2021/01/18 10:08:12;;;;;;;10.20;4.45;;;2.80;99.90;;;;;;4954930;29;20027;-85
2021/01/18 10:10:46;;;;;;;12.88;4.43;;;3.00;99.90;;;;;;4954961;29;20023;-85
2021/01/18 10:13:17;;;;;;;8.63;4.57;;;3.00;99.90;;;;;;4954996;29;20090;-84
2021/01/18 10:15:47;;;;;;;6.72;3.40;;;2.90;99.90;;;;;;4955075;29;20119;-84
2021/01/18 10:18:28;;;;;;;7.20;3.50;;;2.70;99.90;;;;;;4956291;28;20023;-84
2021/01/18 10:20:54;;;;;;;5.63;3.58;;;2.60;99.90;;;;;;4954743;29;20387;-85
2021/01/18 10:23:20;;;;;;;8.60;3.67;;;2.80;99.90;;;;;;4954832;29;20027;-85
2021/01/18 10:25:46;;;;;;;10.13;3.92;;;2.70;99.90;;;;;;4954724;29;20038;-85
2021/01/18 10:28:19;;;;;;;8.40;3.25;;;2.60;99.90;;;;;;4955850;28;20043;-85
2021/01/18 10:30:46;;;;;;;8.73;3.30;;;2.50;99.90;;;;;;4954794;29;20054;-85
2021/01/18 10:33:19;;;;;;;8.88;3.40;;;2.50;99.90;;;;;;4954558;29;20042;-87
2021/01/18 10:35:46;;;;;;;7.47;3.60;;;2.50;99.90;;;;;;4954610;29;20182;-85
2021/01/18 10:38:14;;;;;;;8.30;3.67;;;2.50;99.90;;;;;;4954349;28;20109;-86
2021/01/18 10:40:41;;;;;;;12.13;4.13;;;2.40;99.90;;;;;;4956265;28;20023;-87
2021/01/18 10:43:08;;;;;;;5.88;3.40;;;2.30;99.90;;;;;;4954098;29;20027;-87
2021/01/18 10:45:42;;;;;;;6.55;3.00;;;2.40;99.90;;;;;;4955698;28;20027;-87
2021/01/18 10:48:09;;;;;;;6.93;3.20;;;2.50;99.90;;;;;;4954429;29;20031;-87
2021/01/18 10:50:35;;;;;;;4.47;2.95;;;2.60;99.90;;;;;;4954284;29;20027;-87
2021/01/18 10:53:10;;;;;;;5.30;2.85;;;2.60;99.90;;;;;;4954241;29;20033;-87
2021/01/18 10:55:37;;;;;;;8.25;2.97;;;2.60;99.90;;;;;;4954325;29;20483;-87
2021/01/18 10:58:06;;;;;;;6.82;2.70;;;2.70;99.90;;;;;;4955535;28;20469;-87
2021/01/18 11:00:33;;;;;;;8.43;2.83;;;2.70;99.90;;;;;;4955817;28;20195;-87
2021/01/18 11:03:03;;;;;;;5.68;3.00;;;2.80;99.90;;;;;;4954262;29;20031;-88
2021/01/18 11:05:33;;;;;;;6.97;3.03;;;2.80;99.90;;;;;;4955618;28;20035;-87
2021/01/18 11:08:04;;;;;;;7.60;3.05;;;2.80;99.90;;;;;;4954466;29;20082;-86
2021/01/18 11:10:31;;;;;;;5.03;3.05;;;2.90;99.90;;;;;;4955443;28;20027;-87
2021/01/18 11:13:07;;;;;;;6.25;3.00;;;3.10;99.90;;;;;;4955725;28;20031;-87
2021/01/18 11:15:36;;;;;;;5.90;3.05;;;3.10;99.90;;;;;;4954088;29;20024;-87
2021/01/18 11:18:02;;;;;;;10.20;2.95;;;3.20;99.90;;;;;;4954143;29;20118;-87
2021/01/18 11:20:31;;;;;;;6.07;3.10;;;3.40;99.90;;;;;;4955294;28;20379;-87
2021/01/18 11:22:57;;;;;;;5.60;3.08;;;3.50;99.90;;;;;;4954051;29;20086;-87
2021/01/18 11:25:23;;;;;;;7.30;3.45;;;3.60;99.90;;;;;;4954087;29;20039;-86
2021/01/18 11:27:49;;;;;;;6.55;3.70;;;3.60;99.90;;;;;;4954099;29;20042;-86
2021/01/18 11:30:15;;;;;;;8.38;3.25;;;3.60;99.90;;;;;;4954643;29;20081;-86
2021/01/18 11:32:42;;;;;;;16.58;8.90;;;3.50;99.90;;;;;;4955219;28;20388;-86
2021/01/18 11:35:10;;;;;;;10.55;5.97;;;3.40;99.90;;;;;;4955190;28;20360;-86
2021/01/18 11:37:37;;;;;;;9.48;3.88;;;3.50;99.90;;;;;;4953933;28;20023;-86
2021/01/18 11:40:08;;;;;;;8.68;4.03;;;3.70;99.90;;;;;;4953926;29;20058;-86
2021/01/18 11:42:34;;;;;;;7.95;3.47;;;3.70;99.90;;;;;;4955003;28;20015;-86
2021/01/18 11:45:03;;;;;;;9.52;3.30;;;3.70;99.90;;;;;;4953682;29;20623;-85
2021/01/18 11:47:36;;;;;;;11.13;3.92;;;3.60;99.90;;;;;;4954969;28;20034;-85
2021/01/18 11:50:04;;;;;;;6.65;3.33;;;3.60;99.90;;;;;;4953777;29;20063;-85
2021/01/18 11:52:30;;;;;;;10.25;3.72;;;3.70;99.90;;;;;;4953706;28;20074;-86
2021/01/18 11:54:55;;;;;;;11.98;3.90;;;3.70;99.90;;;;;;4958176;28;20027;-85
2021/01/18 11:57:21;;;;;;;21.95;9.88;;;3.70;99.90;;;;;;4957272;29;20067;-85
2021/01/18 11:59:47;;;;;;;19.60;9.52;;;3.80;99.90;;;;;;4957305;29;20023;-85
2021/01/18 12:02:13;;;;;;;9.10;4.07;;;3.90;99.90;;;;;;4957311;29;20031;-84
2021/01/18 12:04:38;;;;;;;7.38;3.80;;;4.00;99.90;;;;;;4958660;28;20027;-85
2021/01/18 12:07:05;;;;;;;11.52;4.10;;;4.00;99.90;;;;;;4957184;29;20119;-85
2021/01/18 12:09:31;;;;;;;12.07;4.50;;;4.00;99.90;;;;;;4957055;29;20071;-85
2021/01/18 12:11:59;;;;;;;18.33;10.23;;;4.10;99.90;;;;;;4958268;28;20062;-85
2021/01/18 12:14:25;;;;;;;14.73;6.32;;;3.90;99.90;;;;;;4958423;28;20031;-84
2021/01/18 12:16:51;;;;;;;13.27;5.22;;;3.80;99.90;;;;;;4956942;29;20026;-84
2021/01/18 12:19:17;;;;;;;7.00;4.07;;;3.70;99.90;;;;;;4956836;29;20031;-84
2021/01/18 12:21:43;;;;;;;10.10;3.90;;;3.70;99.90;;;;;;4956876;29;20023;-84
2021/01/18 12:24:09;;;;;;;8.25;3.30;;;3.70;99.90;;;;;;4956796;29;20118;-84
2021/01/18 12:26:35;;;;;;;12.43;5.35;;;3.80;99.90;;;;;;4958238;28;20516;-84
2021/01/18 12:29:01;;;;;;;8.95;4.70;;;3.90;99.90;;;;;;4956655;29;20058;-84
2021/01/18 12:31:26;;;;;;;11.80;4.75;;;4.10;99.90;;;;;;4956686;29;20114;-84
2021/01/18 12:33:53;;;;;;;7.45;3.45;;;4.10;99.90;;;;;;4956566;29;20483;-85
2021/01/18 12:36:18;;;;;;;10.48;4.28;;;4.10;99.90;;;;;;4956510;28;20032;-84
2021/01/18 12:38:44;;;;;;;8.07;3.70;;;4.10;99.90;;;;;;4956536;29;20026;-85
2021/01/18 12:41:11;;;;;;;9.68;3.42;;;4.20;99.90;;;;;;4956489;29;20023;-85
2021/01/18 12:43:37;;;;;;;8.73;3.63;;;4.10;99.90;;;;;;4957498;28;20077;-86
2021/01/18 12:46:03;;;;;;;11.05;3.70;;;4.00;99.90;;;;;;4957728;28;20059;-85
2021/01/18 12:48:29;;;;;;;12.05;3.63;;;3.90;99.90;;;;;;4956345;29;20027;-85
2021/01/18 12:50:55;;;;;;;9.20;3.80;;;3.90;99.90;;;;;;4956322;29;20027;-85
2021/01/18 12:56:05;;;;;;;9.95;2.75;;;3.90;99.90;;;;;;4957898;29;20493;-85
2021/01/18 12:58:31;;;;;;;5.60;3.05;;;3.80;99.90;;;;;;4956221;29;20027;-85
2021/01/18 13:00:56;;;;;;;6.82;3.17;;;3.60;99.90;;;;;;4957611;28;20070;-86
2021/01/18 13:03:22;;;;;;;10.75;5.68;;;3.40;99.90;;;;;;4957314;28;20035;-86
2021/01/18 13:05:50;;;;;;;8.95;3.20;;;3.30;99.90;;;;;;4954979;28;20027;-86
2021/01/18 13:08:16;;;;;;;11.13;3.50;;;3.30;99.90;;;;;;4957282;28;20038;-85
2021/01/18 13:10:42;;;;;;;8.18;3.80;;;3.30;99.90;;;;;;4957213;28;20423;-86
2021/01/18 13:13:08;;;;;;;6.70;3.13;;;3.20;99.90;;;;;;4955853;29;20027;-86